sensor_id;sensor_type;location;lat;lon;timestamp;temperature;humidity
51486;DHT22;37565;51.352;6.412;2022-07-10T00:00:01;24.00;94.50
51486;DHT22;37565;51.352;6.412;2022-07-10T00:02:30;24.00;94.00
51486;DHT22;37565;51.352;6.412;2022-07-10T00:04:59;24.00;94.80
51486;DHT22;37565;51.352;6.412;2022-07-10T00:07:27;23.90;93.50
51486;DHT22;37565;51.352;6.412;2022-07-10T00:09:55;24.00;93.90
51486;DHT22;37565;51.352;6.412;2022-07-10T00:12:23;23.90;93.50
51486;DHT22;37565;51.352;6.412;2022-07-10T00:14:51;23.90;93.10
51486;DHT22;37565;51.352;6.412;2022-07-10T00:17:19;23.90;92.80
51486;DHT22;37565;51.352;6.412;2022-07-10T00:19:48;23.80;93.10
51486;DHT22;37565;51.352;6.412;2022-07-10T00:22:16;23.80;93.00
51486;DHT22;37565;51.352;6.412;2022-07-10T00:24:44;23.80;93.20
51486;DHT22;37565;51.352;6.412;2022-07-10T00:27:13;23.80;93.50
51486;DHT22;37565;51.352;6.412;2022-07-10T00:29:41;23.70;93.40
51486;DHT22;37565;51.352;6.412;2022-07-10T00:32:09;23.70;93.20
51486;DHT22;37565;51.352;6.412;2022-07-10T00:34:39;23.70;93.50
51486;DHT22;37565;51.352;6.412;2022-07-10T00:37:11;23.70;93.70
51486;DHT22;37565;51.352;6.412;2022-07-10T00:39:39;23.70;93.70
51486;DHT22;37565;51.352;6.412;2022-07-10T00:42:08;23.70;93.90
51486;DHT22;37565;51.352;6.412;2022-07-10T00:44:36;23.70;94.00
51486;DHT22;37565;51.352;6.412;2022-07-10T00:47:05;23.60;93.80
51486;DHT22;37565;51.352;6.412;2022-07-10T00:49:34;23.60;93.90
51486;DHT22;37565;51.352;6.412;2022-07-10T00:52:04;23.60;94.10
51486;DHT22;37565;51.352;6.412;2022-07-10T00:54:35;23.60;93.60
51486;DHT22;37565;51.352;6.412;2022-07-10T00:57:05;23.60;94.00
51486;DHT22;37565;51.352;6.412;2022-07-10T00:59:34;23.60;94.20
51486;DHT22;37565;51.352;6.412;2022-07-10T01:02:03;23.60;94.00
51486;DHT22;37565;51.352;6.412;2022-07-10T01:04:32;23.60;94.10
51486;DHT22;37565;51.352;6.412;2022-07-10T01:07:01;23.60;94.10
51486;DHT22;37565;51.352;6.412;2022-07-10T01:09:30;23.60;94.20
51486;DHT22;37565;51.352;6.412;2022-07-10T01:12:01;23.60;94.40
51486;DHT22;37565;51.352;6.412;2022-07-10T01:14:29;23.60;94.20
51486;DHT22;37565;51.352;6.412;2022-07-10T01:16:58;23.60;94.10
51486;DHT22;37565;51.352;6.412;2022-07-10T01:19:26;23.50;94.40
51486;DHT22;37565;51.352;6.412;2022-07-10T01:21:55;23.50;94.00
51486;DHT22;37565;51.352;6.412;2022-07-10T01:24:23;23.50;94.40
51486;DHT22;37565;51.352;6.412;2022-07-10T01:26:52;23.50;94.40
51486;DHT22;37565;51.352;6.412;2022-07-10T01:29:22;23.50;94.40
51486;DHT22;37565;51.352;6.412;2022-07-10T01:31:50;23.50;94.50
51486;DHT22;37565;51.352;6.412;2022-07-10T01:34:22;23.50;94.40
51486;DHT22;37565;51.352;6.412;2022-07-10T01:36:50;23.50;94.50
51486;DHT22;37565;51.352;6.412;2022-07-10T01:39:20;23.50;94.40
51486;DHT22;37565;51.352;6.412;2022-07-10T01:41:48;23.50;94.50
51486;DHT22;37565;51.352;6.412;2022-07-10T01:44:16;23.50;94.50
51486;DHT22;37565;51.352;6.412;2022-07-10T01:46:44;23.50;94.60
51486;DHT22;37565;51.352;6.412;2022-07-10T01:49:13;23.50;94.40
51486;DHT22;37565;51.352;6.412;2022-07-10T01:51:41;23.40;94.40
51486;DHT22;37565;51.352;6.412;2022-07-10T01:54:10;23.50;94.50
51486;DHT22;37565;51.352;6.412;2022-07-10T01:56:39;23.40;94.60
51486;DHT22;37565;51.352;6.412;2022-07-10T01:59:08;23.40;94.70
51486;DHT22;37565;51.352;6.412;2022-07-10T02:01:36;23.50;94.50
51486;DHT22;37565;51.352;6.412;2022-07-10T02:04:04;23.40;94.50
51486;DHT22;37565;51.352;6.412;2022-07-10T02:06:50;23.40;94.50
51486;DHT22;37565;51.352;6.412;2022-07-10T02:09:17;23.40;94.40
51486;DHT22;37565;51.352;6.412;2022-07-10T02:11:47;23.40;94.30
51486;DHT22;37565;51.352;6.412;2022-07-10T02:14:15;23.40;94.60
51486;DHT22;37565;51.352;6.412;2022-07-10T02:16:43;23.40;94.50
51486;DHT22;37565;51.352;6.412;2022-07-10T02:19:11;23.40;94.60
51486;DHT22;37565;51.352;6.412;2022-07-10T02:21:40;23.40;94.50
51486;DHT22;37565;51.352;6.412;2022-07-10T02:24:08;23.40;94.60
51486;DHT22;37565;51.352;6.412;2022-07-10T02:26:36;23.40;94.60
51486;DHT22;37565;51.352;6.412;2022-07-10T02:29:05;23.40;94.60
51486;DHT22;37565;51.352;6.412;2022-07-10T02:31:33;23.40;94.40
51486;DHT22;37565;51.352;6.412;2022-07-10T02:34:03;23.40;94.80
51486;DHT22;37565;51.352;6.412;2022-07-10T02:36:31;23.40;94.90
51486;DHT22;37565;51.352;6.412;2022-07-10T02:38:59;23.40;94.50
51486;DHT22;37565;51.352;6.412;2022-07-10T02:41:27;23.40;95.10
51486;DHT22;37565;51.352;6.412;2022-07-10T02:43:56;23.40;94.50
51486;DHT22;37565;51.352;6.412;2022-07-10T02:46:25;23.30;94.70
51486;DHT22;37565;51.352;6.412;2022-07-10T02:48:53;23.40;94.80
51486;DHT22;37565;51.352;6.412;2022-07-10T02:51:23;23.40;94.90
51486;DHT22;37565;51.352;6.412;2022-07-10T02:53:51;23.30;94.70
51486;DHT22;37565;51.352;6.412;2022-07-10T02:56:19;23.30;94.70
51486;DHT22;37565;51.352;6.412;2022-07-10T02:58:47;23.30;94.80
51486;DHT22;37565;51.352;6.412;2022-07-10T03:01:15;23.30;94.90
51486;DHT22;37565;51.352;6.412;2022-07-10T03:03:44;23.30;94.80
51486;DHT22;37565;51.352;6.412;2022-07-10T03:06:12;23.30;95.10
51486;DHT22;37565;51.352;6.412;2022-07-10T03:08:40;23.30;94.50
51486;DHT22;37565;51.352;6.412;2022-07-10T03:11:09;23.30;94.80
51486;DHT22;37565;51.352;6.412;2022-07-10T03:13:37;23.30;94.70
51486;DHT22;37565;51.352;6.412;2022-07-10T03:16:05;23.30;94.80
51486;DHT22;37565;51.352;6.412;2022-07-10T03:18:33;23.30;94.90
51486;DHT22;37565;51.352;6.412;2022-07-10T03:21:03;23.30;95.10
51486;DHT22;37565;51.352;6.412;2022-07-10T03:23:31;23.30;95.30
51486;DHT22;37565;51.352;6.412;2022-07-10T03:25:59;23.20;95.20
51486;DHT22;37565;51.352;6.412;2022-07-10T03:28:27;23.30;94.90
51486;DHT22;37565;51.352;6.412;2022-07-10T03:30:55;23.20;95.10
51486;DHT22;37565;51.352;6.412;2022-07-10T03:33:23;23.20;95.00
51486;DHT22;37565;51.352;6.412;2022-07-10T03:35:51;23.20;95.20
51486;DHT22;37565;51.352;6.412;2022-07-10T03:38:20;23.20;95.20
51486;DHT22;37565;51.352;6.412;2022-07-10T03:40:48;23.20;95.00
51486;DHT22;37565;51.352;6.412;2022-07-10T03:43:16;23.20;95.10
51486;DHT22;37565;51.352;6.412;2022-07-10T03:45:44;23.20;95.30
51486;DHT22;37565;51.352;6.412;2022-07-10T03:48:12;23.20;95.30
51486;DHT22;37565;51.352;6.412;2022-07-10T03:50:40;23.20;95.10
51486;DHT22;37565;51.352;6.412;2022-07-10T03:53:08;23.20;95.10
51486;DHT22;37565;51.352;6.412;2022-07-10T03:55:37;23.20;95.30
51486;DHT22;37565;51.352;6.412;2022-07-10T03:58:05;23.20;95.10
51486;DHT22;37565;51.352;6.412;2022-07-10T04:00:32;23.20;95.10
51486;DHT22;37565;51.352;6.412;2022-07-10T04:03:03;23.20;95.10
51486;DHT22;37565;51.352;6.412;2022-07-10T04:05:31;23.10;95.40
51486;DHT22;37565;51.352;6.412;2022-07-10T04:08:00;23.20;95.70
51486;DHT22;37565;51.352;6.412;2022-07-10T04:10:29;23.10;95.10
51486;DHT22;37565;51.352;6.412;2022-07-10T04:12:59;23.10;95.30
51486;DHT22;37565;51.352;6.412;2022-07-10T04:15:27;23.20;95.40
51486;DHT22;37565;51.352;6.412;2022-07-10T04:17:55;23.10;95.40
51486;DHT22;37565;51.352;6.412;2022-07-10T04:20:24;23.10;96.00
51486;DHT22;37565;51.352;6.412;2022-07-10T04:22:52;23.10;95.70
51486;DHT22;37565;51.352;6.412;2022-07-10T04:25:20;23.10;95.50
51486;DHT22;37565;51.352;6.412;2022-07-10T04:27:48;23.10;96.10
51486;DHT22;37565;51.352;6.412;2022-07-10T04:30:17;23.10;96.20
51486;DHT22;37565;51.352;6.412;2022-07-10T04:32:45;23.10;95.50
51486;DHT22;37565;51.352;6.412;2022-07-10T04:35:13;23.10;95.90
51486;DHT22;37565;51.352;6.412;2022-07-10T04:37:41;23.10;95.60
51486;DHT22;37565;51.352;6.412;2022-07-10T04:40:10;23.10;95.70
51486;DHT22;37565;51.352;6.412;2022-07-10T04:42:38;23.20;96.10
51486;DHT22;37565;51.352;6.412;2022-07-10T04:45:07;23.20;95.80
51486;DHT22;37565;51.352;6.412;2022-07-10T04:47:36;23.20;95.90
51486;DHT22;37565;51.352;6.412;2022-07-10T04:50:05;23.20;95.60
51486;DHT22;37565;51.352;6.412;2022-07-10T04:52:33;23.10;95.80
51486;DHT22;37565;51.352;6.412;2022-07-10T04:55:01;23.10;96.20
51486;DHT22;37565;51.352;6.412;2022-07-10T04:57:29;23.10;96.10
51486;DHT22;37565;51.352;6.412;2022-07-10T04:59:57;23.10;96.00
51486;DHT22;37565;51.352;6.412;2022-07-10T05:02:25;23.10;96.10
51486;DHT22;37565;51.352;6.412;2022-07-10T05:04:55;23.10;96.10
51486;DHT22;37565;51.352;6.412;2022-07-10T05:07:23;23.10;96.10
51486;DHT22;37565;51.352;6.412;2022-07-10T05:09:51;23.20;96.30
51486;DHT22;37565;51.352;6.412;2022-07-10T05:12:18;23.20;96.20
51486;DHT22;37565;51.352;6.412;2022-07-10T05:14:47;23.20;96.30
51486;DHT22;37565;51.352;6.412;2022-07-10T05:17:15;23.20;96.40
51486;DHT22;37565;51.352;6.412;2022-07-10T05:19:43;23.20;96.70
51486;DHT22;37565;51.352;6.412;2022-07-10T05:22:12;23.20;96.40
51486;DHT22;37565;51.352;6.412;2022-07-10T05:24:40;23.20;96.50
51486;DHT22;37565;51.352;6.412;2022-07-10T05:27:08;23.20;96.50
51486;DHT22;37565;51.352;6.412;2022-07-10T05:29:36;23.20;96.70
51486;DHT22;37565;51.352;6.412;2022-07-10T05:32:04;23.20;96.70
51486;DHT22;37565;51.352;6.412;2022-07-10T05:34:32;23.20;96.60
51486;DHT22;37565;51.352;6.412;2022-07-10T05:37:00;23.20;96.60
51486;DHT22;37565;51.352;6.412;2022-07-10T05:39:29;23.20;97.00
51486;DHT22;37565;51.352;6.412;2022-07-10T05:41:57;23.20;96.70
51486;DHT22;37565;51.352;6.412;2022-07-10T05:44:25;23.20;96.90
51486;DHT22;37565;51.352;6.412;2022-07-10T05:46:53;23.20;96.90
51486;DHT22;37565;51.352;6.412;2022-07-10T05:49:21;23.20;96.90
51486;DHT22;37565;51.352;6.412;2022-07-10T05:51:49;23.20;97.00
51486;DHT22;37565;51.352;6.412;2022-07-10T05:54:17;23.20;97.00
51486;DHT22;37565;51.352;6.412;2022-07-10T05:56:47;23.20;97.00
51486;DHT22;37565;51.352;6.412;2022-07-10T05:59:14;23.20;97.10
51486;DHT22;37565;51.352;6.412;2022-07-10T06:01:42;23.10;97.30
51486;DHT22;37565;51.352;6.412;2022-07-10T06:04:11;23.10;97.20
51486;DHT22;37565;51.352;6.412;2022-07-10T06:06:39;23.10;97.10
51486;DHT22;37565;51.352;6.412;2022-07-10T06:09:07;23.10;97.10
51486;DHT22;37565;51.352;6.412;2022-07-10T06:11:35;23.10;97.00
51486;DHT22;37565;51.352;6.412;2022-07-10T06:14:04;23.10;97.20
51486;DHT22;37565;51.352;6.412;2022-07-10T06:16:32;23.10;97.20
51486;DHT22;37565;51.352;6.412;2022-07-10T06:19:00;23.10;97.20
51486;DHT22;37565;51.352;6.412;2022-07-10T06:21:28;23.10;97.30
51486;DHT22;37565;51.352;6.412;2022-07-10T06:23:56;23.10;97.30
51486;DHT22;37565;51.352;6.412;2022-07-10T06:26:25;23.10;97.20
51486;DHT22;37565;51.352;6.412;2022-07-10T06:28:53;23.10;97.40
51486;DHT22;37565;51.352;6.412;2022-07-10T06:31:22;23.10;97.30
51486;DHT22;37565;51.352;6.412;2022-07-10T06:33:50;23.10;97.30
51486;DHT22;37565;51.352;6.412;2022-07-10T06:36:18;23.00;97.50
51486;DHT22;37565;51.352;6.412;2022-07-10T06:38:51;23.00;97.10
51486;DHT22;37565;51.352;6.412;2022-07-10T06:41:19;23.00;97.50
51486;DHT22;37565;51.352;6.412;2022-07-10T06:43:47;23.00;97.50
51486;DHT22;37565;51.352;6.412;2022-07-10T06:46:15;23.00;97.40
51486;DHT22;37565;51.352;6.412;2022-07-10T06:48:44;23.00;97.60
51486;DHT22;37565;51.352;6.412;2022-07-10T06:51:11;23.00;97.60
51486;DHT22;37565;51.352;6.412;2022-07-10T06:53:44;23.00;97.50
51486;DHT22;37565;51.352;6.412;2022-07-10T06:56:12;23.00;97.50
51486;DHT22;37565;51.352;6.412;2022-07-10T06:58:42;23.00;97.50
51486;DHT22;37565;51.352;6.412;2022-07-10T07:01:10;23.00;97.90
51486;DHT22;37565;51.352;6.412;2022-07-10T07:03:39;23.00;97.70
51486;DHT22;37565;51.352;6.412;2022-07-10T07:06:08;23.00;98.00
51486;DHT22;37565;51.352;6.412;2022-07-10T07:08:37;23.00;97.70
51486;DHT22;37565;51.352;6.412;2022-07-10T07:11:06;23.00;97.60
51486;DHT22;37565;51.352;6.412;2022-07-10T07:13:33;23.00;97.70
51486;DHT22;37565;51.352;6.412;2022-07-10T07:16:02;23.00;97.80
51486;DHT22;37565;51.352;6.412;2022-07-10T07:18:33;23.00;97.70
51486;DHT22;37565;51.352;6.412;2022-07-10T07:21:04;23.00;97.80
51486;DHT22;37565;51.352;6.412;2022-07-10T07:23:51;23.10;97.80
51486;DHT22;37565;51.352;6.412;2022-07-10T07:26:19;23.00;97.90
51486;DHT22;37565;51.352;6.412;2022-07-10T07:28:47;23.10;97.80
51486;DHT22;37565;51.352;6.412;2022-07-10T07:31:15;23.10;97.90
51486;DHT22;37565;51.352;6.412;2022-07-10T07:33:45;23.00;97.90
51486;DHT22;37565;51.352;6.412;2022-07-10T07:36:13;23.10;97.80
51486;DHT22;37565;51.352;6.412;2022-07-10T07:38:41;23.10;97.80
51486;DHT22;37565;51.352;6.412;2022-07-10T07:41:10;23.20;98.00
51486;DHT22;37565;51.352;6.412;2022-07-10T07:43:38;23.20;97.80
51486;DHT22;37565;51.352;6.412;2022-07-10T07:46:06;23.20;97.90
51486;DHT22;37565;51.352;6.412;2022-07-10T07:48:34;23.20;97.80
51486;DHT22;37565;51.352;6.412;2022-07-10T07:51:03;23.30;97.90
51486;DHT22;37565;51.352;6.412;2022-07-10T07:53:31;23.30;97.70
51486;DHT22;37565;51.352;6.412;2022-07-10T07:55:59;23.30;97.80
51486;DHT22;37565;51.352;6.412;2022-07-10T07:58:29;23.30;97.70
51486;DHT22;37565;51.352;6.412;2022-07-10T08:00:58;23.30;97.70
51486;DHT22;37565;51.352;6.412;2022-07-10T08:03:26;23.30;97.90
51486;DHT22;37565;51.352;6.412;2022-07-10T08:06:14;23.30;97.70
51486;DHT22;37565;51.352;6.412;2022-07-10T08:08:42;23.30;98.00
51486;DHT22;37565;51.352;6.412;2022-07-10T08:11:12;23.20;98.40
51486;DHT22;37565;51.352;6.412;2022-07-10T08:13:44;23.30;98.60
51486;DHT22;37565;51.352;6.412;2022-07-10T08:16:12;23.30;98.40
51486;DHT22;37565;51.352;6.412;2022-07-10T08:18:40;23.30;98.50
51486;DHT22;37565;51.352;6.412;2022-07-10T08:21:09;23.30;98.60
51486;DHT22;37565;51.352;6.412;2022-07-10T08:23:37;23.30;98.90
51486;DHT22;37565;51.352;6.412;2022-07-10T08:26:05;23.30;98.90
51486;DHT22;37565;51.352;6.412;2022-07-10T08:28:33;23.30;99.00
51486;DHT22;37565;51.352;6.412;2022-07-10T08:31:03;23.30;99.10
51486;DHT22;37565;51.352;6.412;2022-07-10T08:33:31;23.30;99.10
51486;DHT22;37565;51.352;6.412;2022-07-10T08:35:59;23.30;99.50
51486;DHT22;37565;51.352;6.412;2022-07-10T08:38:47;23.30;99.10
51486;DHT22;37565;51.352;6.412;2022-07-10T08:41:15;23.30;99.10
51486;DHT22;37565;51.352;6.412;2022-07-10T08:43:45;23.20;97.60
51486;DHT22;37565;51.352;6.412;2022-07-10T08:46:15;23.10;96.00
51486;DHT22;37565;51.352;6.412;2022-07-10T08:48:47;23.00;95.40
51486;DHT22;37565;51.352;6.412;2022-07-10T08:51:23;22.80;95.20
51486;DHT22;37565;51.352;6.412;2022-07-10T08:53:54;22.70;95.20
51486;DHT22;37565;51.352;6.412;2022-07-10T08:56:24;22.60;95.30
51486;DHT22;37565;51.352;6.412;2022-07-10T08:58:52;22.60;95.40
51486;DHT22;37565;51.352;6.412;2022-07-10T09:01:23;22.50;95.60
51486;DHT22;37565;51.352;6.412;2022-07-10T09:03:51;22.50;96.30
51486;DHT22;37565;51.352;6.412;2022-07-10T09:06:19;22.50;97.10
51486;DHT22;37565;51.352;6.412;2022-07-10T09:08:59;22.30;97.90
51486;DHT22;37565;51.352;6.412;2022-07-10T09:11:27;22.30;99.10
51486;DHT22;37565;51.352;6.412;2022-07-10T09:13:59;22.30;99.30
51486;DHT22;37565;51.352;6.412;2022-07-10T09:16:29;22.20;99.80
51486;DHT22;37565;51.352;6.412;2022-07-10T09:19:15;22.20;99.90
51486;DHT22;37565;51.352;6.412;2022-07-10T09:21:44;22.20;99.90
51486;DHT22;37565;51.352;6.412;2022-07-10T09:24:13;22.20;99.90
51486;DHT22;37565;51.352;6.412;2022-07-10T09:26:57;22.10;99.90
51486;DHT22;37565;51.352;6.412;2022-07-10T09:29:26;22.20;99.90
51486;DHT22;37565;51.352;6.412;2022-07-10T09:31:56;22.30;99.90
51486;DHT22;37565;51.352;6.412;2022-07-10T09:34:37;22.40;99.90
51486;DHT22;37565;51.352;6.412;2022-07-10T09:37:23;22.60;99.90
51486;DHT22;37565;51.352;6.412;2022-07-10T09:39:54;22.70;99.90
51486;DHT22;37565;51.352;6.412;2022-07-10T09:42:30;22.80;99.90
51486;DHT22;37565;51.352;6.412;2022-07-10T09:45:20;22.90;99.90
51486;DHT22;37565;51.352;6.412;2022-07-10T09:47:57;23.10;99.40
51486;DHT22;37565;51.352;6.412;2022-07-10T09:50:30;23.20;99.10
51486;DHT22;37565;51.352;6.412;2022-07-10T09:53:00;23.30;99.00
51486;DHT22;37565;51.352;6.412;2022-07-10T09:55:31;23.30;99.10
51486;DHT22;37565;51.352;6.412;2022-07-10T09:58:00;23.30;99.30
51486;DHT22;37565;51.352;6.412;2022-07-10T10:00:31;23.20;99.50
51486;DHT22;37565;51.352;6.412;2022-07-10T10:03:02;23.20;99.70
51486;DHT22;37565;51.352;6.412;2022-07-10T10:05:38;23.20;99.90
51486;DHT22;37565;51.352;6.412;2022-07-10T10:08:11;23.20;99.90
51486;DHT22;37565;51.352;6.412;2022-07-10T10:10:47;23.20;99.90
51486;DHT22;37565;51.352;6.412;2022-07-10T10:13:19;23.20;99.90
51486;DHT22;37565;51.352;6.412;2022-07-10T10:15:49;23.30;99.90
51486;DHT22;37565;51.352;6.412;2022-07-10T10:18:19;23.30;99.90
51486;DHT22;37565;51.352;6.412;2022-07-10T10:20:50;23.40;99.90
51486;DHT22;37565;51.352;6.412;2022-07-10T10:23:19;23.40;99.90
51486;DHT22;37565;51.352;6.412;2022-07-10T10:25:48;23.50;99.90
51486;DHT22;37565;51.352;6.412;2022-07-10T10:28:17;23.50;99.90
51486;DHT22;37565;51.352;6.412;2022-07-10T10:30:52;23.60;99.90
51486;DHT22;37565;51.352;6.412;2022-07-10T10:33:42;23.60;99.90
51486;DHT22;37565;51.352;6.412;2022-07-10T10:36:13;23.60;99.90
51486;DHT22;37565;51.352;6.412;2022-07-10T10:39:00;23.60;99.90
51486;DHT22;37565;51.352;6.412;2022-07-10T10:41:30;23.60;99.90
51486;DHT22;37565;51.352;6.412;2022-07-10T10:44:22;23.60;99.90
51486;DHT22;37565;51.352;6.412;2022-07-10T10:46:58;23.60;99.90
51486;DHT22;37565;51.352;6.412;2022-07-10T10:49:54;23.60;99.90
51486;DHT22;37565;51.352;6.412;2022-07-10T10:52:25;23.60;99.90
51486;DHT22;37565;51.352;6.412;2022-07-10T10:55:07;23.80;99.90
51486;DHT22;37565;51.352;6.412;2022-07-10T10:57:42;23.80;99.90
51486;DHT22;37565;51.352;6.412;2022-07-10T11:00:34;23.90;99.90
51486;DHT22;37565;51.352;6.412;2022-07-10T11:03:17;23.90;99.90
51486;DHT22;37565;51.352;6.412;2022-07-10T11:05:48;23.90;99.90
51486;DHT22;37565;51.352;6.412;2022-07-10T11:08:38;23.80;99.90
51486;DHT22;37565;51.352;6.412;2022-07-10T11:11:37;23.80;99.90
51486;DHT22;37565;51.352;6.412;2022-07-10T11:14:09;23.70;99.90
51486;DHT22;37565;51.352;6.412;2022-07-10T11:16:46;23.70;99.90
51486;DHT22;37565;51.352;6.412;2022-07-10T11:19:23;23.80;99.90
51486;DHT22;37565;51.352;6.412;2022-07-10T11:22:03;23.80;99.90
51486;DHT22;37565;51.352;6.412;2022-07-10T11:24:48;23.80;99.90
51486;DHT22;37565;51.352;6.412;2022-07-10T11:27:29;23.80;99.90
51486;DHT22;37565;51.352;6.412;2022-07-10T11:29:58;23.80;99.90
51486;DHT22;37565;51.352;6.412;2022-07-10T11:32:27;23.80;99.90
51486;DHT22;37565;51.352;6.412;2022-07-10T11:34:56;23.80;99.90
51486;DHT22;37565;51.352;6.412;2022-07-10T11:37:26;23.80;99.90
51486;DHT22;37565;51.352;6.412;2022-07-10T11:40:10;23.80;99.90
51486;DHT22;37565;51.352;6.412;2022-07-10T11:42:51;23.80;99.90
51486;DHT22;37565;51.352;6.412;2022-07-10T11:45:27;23.90;99.90
51486;DHT22;37565;51.352;6.412;2022-07-10T11:47:56;23.90;99.90
51486;DHT22;37565;51.352;6.412;2022-07-10T11:50:25;23.90;99.90
51486;DHT22;37565;51.352;6.412;2022-07-10T11:52:55;23.80;99.90
51486;DHT22;37565;51.352;6.412;2022-07-10T11:55:26;23.90;99.90
51486;DHT22;37565;51.352;6.412;2022-07-10T11:57:55;23.90;99.90
51486;DHT22;37565;51.352;6.412;2022-07-10T12:00:26;23.90;99.90
51486;DHT22;37565;51.352;6.412;2022-07-10T12:02:55;23.90;99.90
51486;DHT22;37565;51.352;6.412;2022-07-10T12:05:30;23.80;99.90
51486;DHT22;37565;51.352;6.412;2022-07-10T12:08:00;23.80;99.90
51486;DHT22;37565;51.352;6.412;2022-07-10T12:10:29;23.80;99.90
51486;DHT22;37565;51.352;6.412;2022-07-10T12:13:04;23.80;99.90
51486;DHT22;37565;51.352;6.412;2022-07-10T12:15:34;23.80;99.90
51486;DHT22;37565;51.352;6.412;2022-07-10T12:18:05;23.80;99.90
51486;DHT22;37565;51.352;6.412;2022-07-10T12:20:33;23.90;99.90
51486;DHT22;37565;51.352;6.412;2022-07-10T12:23:03;23.90;99.90
51486;DHT22;37565;51.352;6.412;2022-07-10T12:25:31;23.90;99.90
51486;DHT22;37565;51.352;6.412;2022-07-10T12:28:00;24.00;99.90
51486;DHT22;37565;51.352;6.412;2022-07-10T12:30:38;24.00;99.70
51486;DHT22;37565;51.352;6.412;2022-07-10T12:33:08;24.00;99.80
51486;DHT22;37565;51.352;6.412;2022-07-10T12:35:50;24.00;99.80
51486;DHT22;37565;51.352;6.412;2022-07-10T12:38:21;24.00;99.90
51486;DHT22;37565;51.352;6.412;2022-07-10T12:40:50;24.00;99.80
51486;DHT22;37565;51.352;6.412;2022-07-10T12:43:25;24.00;99.60
51486;DHT22;37565;51.352;6.412;2022-07-10T12:46:14;24.00;99.30
51486;DHT22;37565;51.352;6.412;2022-07-10T12:48:43;24.10;99.50
51486;DHT22;37565;51.352;6.412;2022-07-10T12:51:22;24.10;99.30
51486;DHT22;37565;51.352;6.412;2022-07-10T12:53:52;24.10;99.20
51486;DHT22;37565;51.352;6.412;2022-07-10T12:56:32;24.10;99.10
51486;DHT22;37565;51.352;6.412;2022-07-10T12:59:02;24.10;99.10
51486;DHT22;37565;51.352;6.412;2022-07-10T13:01:41;24.10;99.50
51486;DHT22;37565;51.352;6.412;2022-07-10T13:04:09;24.10;99.50
51486;DHT22;37565;51.352;6.412;2022-07-10T13:06:39;24.00;99.60
51486;DHT22;37565;51.352;6.412;2022-07-10T13:09:22;24.00;99.60
51486;DHT22;37565;51.352;6.412;2022-07-10T13:11:51;24.00;99.50
51486;DHT22;37565;51.352;6.412;2022-07-10T13:14:19;24.00;99.70
51486;DHT22;37565;51.352;6.412;2022-07-10T13:16:47;24.00;99.50
51486;DHT22;37565;51.352;6.412;2022-07-10T13:19:16;24.00;99.50
51486;DHT22;37565;51.352;6.412;2022-07-10T13:21:44;24.00;99.40
51486;DHT22;37565;51.352;6.412;2022-07-10T13:24:12;24.00;99.40
51486;DHT22;37565;51.352;6.412;2022-07-10T13:26:41;24.00;99.50
51486;DHT22;37565;51.352;6.412;2022-07-10T13:29:09;24.00;99.50
51486;DHT22;37565;51.352;6.412;2022-07-10T13:31:37;24.00;99.60
51486;DHT22;37565;51.352;6.412;2022-07-10T13:34:05;24.00;99.50
51486;DHT22;37565;51.352;6.412;2022-07-10T13:36:34;23.90;99.60
51486;DHT22;37565;51.352;6.412;2022-07-10T13:39:02;23.90;99.60
51486;DHT22;37565;51.352;6.412;2022-07-10T13:41:30;23.90;99.70
51486;DHT22;37565;51.352;6.412;2022-07-10T13:43:59;23.90;99.60
51486;DHT22;37565;51.352;6.412;2022-07-10T13:46:28;23.90;99.80
51486;DHT22;37565;51.352;6.412;2022-07-10T13:48:56;23.90;99.90
51486;DHT22;37565;51.352;6.412;2022-07-10T13:51:24;23.90;99.90
51486;DHT22;37565;51.352;6.412;2022-07-10T13:53:52;23.90;99.80
51486;DHT22;37565;51.352;6.412;2022-07-10T13:56:20;23.90;99.90
51486;DHT22;37565;51.352;6.412;2022-07-10T13:58:48;23.90;99.90
51486;DHT22;37565;51.352;6.412;2022-07-10T14:01:18;23.90;99.80
51486;DHT22;37565;51.352;6.412;2022-07-10T14:03:46;23.90;99.80
51486;DHT22;37565;51.352;6.412;2022-07-10T14:06:14;23.90;99.80
51486;DHT22;37565;51.352;6.412;2022-07-10T14:08:42;23.90;99.80
51486;DHT22;37565;51.352;6.412;2022-07-10T14:11:10;23.90;99.90
51486;DHT22;37565;51.352;6.412;2022-07-10T14:13:38;23.90;99.80
51486;DHT22;37565;51.352;6.412;2022-07-10T14:16:07;23.90;99.80
51486;DHT22;37565;51.352;6.412;2022-07-10T14:18:36;23.90;99.80
51486;DHT22;37565;51.352;6.412;2022-07-10T14:21:07;23.90;99.80
51486;DHT22;37565;51.352;6.412;2022-07-10T14:23:37;23.90;99.80
51486;DHT22;37565;51.352;6.412;2022-07-10T14:26:08;23.90;99.70
51486;DHT22;37565;51.352;6.412;2022-07-10T14:28:36;23.90;99.70
51486;DHT22;37565;51.352;6.412;2022-07-10T14:31:06;23.90;99.70
51486;DHT22;37565;51.352;6.412;2022-07-10T14:33:36;23.90;99.60
51486;DHT22;37565;51.352;6.412;2022-07-10T14:36:04;23.90;99.60
51486;DHT22;37565;51.352;6.412;2022-07-10T14:38:33;23.90;99.60
51486;DHT22;37565;51.352;6.412;2022-07-10T14:41:01;23.90;99.70
51486;DHT22;37565;51.352;6.412;2022-07-10T14:43:31;23.90;99.60
51486;DHT22;37565;51.352;6.412;2022-07-10T14:46:00;23.90;99.60
51486;DHT22;37565;51.352;6.412;2022-07-10T14:48:30;23.90;99.60
51486;DHT22;37565;51.352;6.412;2022-07-10T14:51:01;23.90;99.60
51486;DHT22;37565;51.352;6.412;2022-07-10T14:53:29;23.90;99.60
51486;DHT22;37565;51.352;6.412;2022-07-10T14:56:01;23.90;99.50
51486;DHT22;37565;51.352;6.412;2022-07-10T14:58:30;23.90;99.60
51486;DHT22;37565;51.352;6.412;2022-07-10T15:01:16;23.90;99.60
51486;DHT22;37565;51.352;6.412;2022-07-10T15:03:45;23.90;99.60
51486;DHT22;37565;51.352;6.412;2022-07-10T15:06:14;23.90;99.60
51486;DHT22;37565;51.352;6.412;2022-07-10T15:08:42;23.90;99.60
51486;DHT22;37565;51.352;6.412;2022-07-10T15:11:10;23.90;99.40
51486;DHT22;37565;51.352;6.412;2022-07-10T15:13:38;23.90;99.90
51486;DHT22;37565;51.352;6.412;2022-07-10T15:16:07;23.90;99.50
51486;DHT22;37565;51.352;6.412;2022-07-10T15:18:35;23.90;99.50
51486;DHT22;37565;51.352;6.412;2022-07-10T15:21:03;23.90;99.80
51486;DHT22;37565;51.352;6.412;2022-07-10T15:23:33;23.90;99.50
51486;DHT22;37565;51.352;6.412;2022-07-10T15:26:01;23.90;99.50
51486;DHT22;37565;51.352;6.412;2022-07-10T15:28:30;23.90;99.50
51486;DHT22;37565;51.352;6.412;2022-07-10T15:31:00;23.80;99.50
51486;DHT22;37565;51.352;6.412;2022-07-10T15:33:32;23.80;99.50
51486;DHT22;37565;51.352;6.412;2022-07-10T15:36:00;23.80;99.50
51486;DHT22;37565;51.352;6.412;2022-07-10T15:38:28;23.80;99.50
51486;DHT22;37565;51.352;6.412;2022-07-10T15:40:59;23.80;99.50
51486;DHT22;37565;51.352;6.412;2022-07-10T15:43:27;23.90;99.70
51486;DHT22;37565;51.352;6.412;2022-07-10T15:45:55;23.90;99.50
51486;DHT22;37565;51.352;6.412;2022-07-10T15:48:23;23.90;99.50